Time;durP1;ratioP1;P1;durP2;ratioP2;P2;SDS_P1;SDS_P2;PMS_P1;PMS_P2;Temp;Humidity;BMP_temperature;BMP_pressure;BME280_temperature;BME280_humidity;BME280_pressure;Samples;Min_cycle;Max_cycle;Signal;HPM_P1;HPM_P2
2022/01/02 00:01:48;;;;;;;6.65;2.78;;;;;;;2.09;100.00;100668.31;5136709;27;20042;-75
2022/01/02 00:04:18;;;;;;;4.00;2.30;;;;;;;2.14;100.00;100653.16;5136775;27;20485;-76
2022/01/02 00:06:48;;;;;;;5.07;2.60;;;;;;;2.14;100.00;100644.28;5137897;27;20045;-76
2022/01/02 00:09:26;;;;;;;4.60;2.40;;;;;;;2.12;100.00;100643.41;5140996;27;20402;-76
2022/01/02 00:11:54;;;;;;;4.93;2.40;;;;;;;1.98;100.00;100636.41;5140604;27;20493;-77
2022/01/02 00:14:25;;;;;;;4.63;2.30;;;;;;;1.96;100.00;100639.97;5136796;27;20039;-76
2022/01/02 00:16:52;;;;;;;4.40;2.50;;;;;;;1.84;100.00;100638.31;5136705;27;20067;-76
2022/01/02 00:19:29;;;;;;;4.40;2.10;;;;;;;1.93;100.00;100648.91;5136591;27;20443;-77
2022/01/02 00:21:59;;;;;;;5.38;2.72;;;;;;;1.93;100.00;100658.66;5138187;27;20047;-76
2022/01/02 00:24:28;;;;;;;3.97;2.30;;;;;;;1.88;100.00;100650.72;5139868;27;20122;-76
2022/01/02 00:26:57;;;;;;;3.95;2.22;;;;;;;1.77;100.00;100633.91;5134419;27;20039;-76
2022/01/02 00:29:25;;;;;;;6.75;3.10;;;;;;;1.73;100.00;100631.25;5126576;27;20054;-76
2022/01/02 00:31:53;;;;;;;5.90;2.70;;;;;;;1.74;100.00;100646.34;5135998;27;20043;-79
2022/01/02 00:34:22;;;;;;;4.65;2.50;;;;;;;1.74;100.00;100645.47;5136530;27;20062;-76
2022/01/02 00:36:50;;;;;;;5.07;2.60;;;;;;;1.71;100.00;100658.81;5133007;27;20054;-77
2022/01/02 00:39:18;;;;;;;4.00;2.30;;;;;;;1.74;100.00;100664.13;5116200;27;20421;-76
2022/01/02 00:41:50;;;;;;;15.52;6.40;;;;;;;1.71;100.00;100665.03;5115615;27;20043;-76
2022/01/02 00:44:33;;;;;;;19.60;6.53;;;;;;;1.60;100.00;100661.56;5118704;28;20051;-76
2022/01/02 00:47:08;;;;;;;32.38;9.80;;;;;;;1.62;100.00;100653.53;5135984;27;20051;-76
2022/01/02 00:49:41;;;;;;;29.65;9.40;;;;;;;1.55;100.00;100642.06;5138311;27;20062;-76
2022/01/02 00:52:13;;;;;;;25.55;9.35;;;;;;;1.35;100.00;100642.19;5134137;27;20043;-76
2022/01/02 00:54:45;;;;;;;14.80;5.57;;;;;;;1.24;100.00;100644.88;5129389;27;20035;-77
2022/01/02 00:57:16;;;;;;;11.82;4.40;;;;;;;1.19;100.00;100634.25;5125387;27;20050;-77
2022/01/02 00:59:57;;;;;;;8.07;3.10;;;;;;;1.25;100.00;100634.25;5129476;27;20475;-76
2022/01/02 01:02:30;;;;;;;7.22;2.80;;;;;;;1.05;100.00;100634.34;5116539;27;20047;-76
2022/01/02 01:04:59;;;;;;;7.80;3.60;;;;;;;1.15;100.00;100620.09;5136350;27;20046;-76
2022/01/02 01:07:27;;;;;;;7.28;3.25;;;;;;;1.08;100.00;100637.00;5125354;27;20513;-76
2022/01/02 01:09:55;;;;;;;12.80;5.68;;;;;;;1.04;100.00;100635.25;5127581;27;20104;-76
2022/01/02 01:12:23;;;;;;;17.05;7.78;;;;;;;0.89;100.00;100636.19;5133813;27;20047;-77
2022/01/02 01:14:51;;;;;;;30.38;15.48;;;;;;;0.91;100.00;100641.47;5114761;27;20040;-76
2022/01/02 01:17:19;;;;;;;23.38;10.23;;;;;;;0.89;100.00;100646.81;5133661;27;20554;-77
2022/01/02 01:19:46;;;;;;;23.83;10.77;;;;;;;0.77;100.00;100628.22;5135028;27;20050;-76
2022/01/02 01:22:15;;;;;;;24.42;11.18;;;;;;;0.71;100.00;100635.34;5134990;27;20046;-77
2022/01/02 01:24:43;;;;;;;22.33;10.38;;;;;;;0.60;100.00;100630.94;5132435;27;20066;-76
2022/01/02 01:27:11;;;;;;;21.83;10.18;;;;;;;0.40;100.00;100614.13;5123922;27;20088;-77
2022/01/02 01:29:38;;;;;;;18.67;8.20;;;;;;;0.44;100.00;100617.69;5133541;27;20096;-77
2022/01/02 01:32:07;;;;;;;15.82;6.88;;;;;;;0.61;100.00;100622.97;5131684;27;20040;-77
2022/01/02 01:34:35;;;;;;;12.65;5.13;;;;;;;0.39;100.00;100623.00;5126252;27;20047;-76
2022/01/02 01:37:03;;;;;;;12.82;5.05;;;;;;;0.53;100.00;100620.31;5134892;27;20047;-77
2022/01/02 01:39:32;;;;;;;10.50;4.35;;;;;;;0.47;100.00;100630.97;5133677;27;20374;-76
2022/01/02 01:42:07;;;;;;;16.70;6.50;;;;;;;0.32;100.00;100633.66;5127752;27;20047;-78
2022/01/02 01:47:22;;;;;;;16.25;7.00;;;;;;;0.19;100.00;100623.03;5051564;28;20490;-77
2022/01/02 01:49:49;;;;;;;13.85;6.82;;;;;;;0.36;100.00;100623.00;5051830;28;20071;-77
2022/01/02 01:52:17;;;;;;;13.38;5.78;;;;;;;0.28;100.00;100625.69;5051169;28;20057;-76
2022/01/02 01:54:46;;;;;;;13.63;6.25;;;;;;;0.30;100.00;100616.84;5051519;28;20045;-76
2022/01/02 01:57:13;;;;;;;16.02;6.90;;;;;;;0.06;100.00;100615.97;5051112;28;20055;-77
2022/01/02 01:59:41;;;;;;;14.63;6.57;;;;;;;0.27;100.00;100618.63;5050947;28;20439;-78
2022/01/02 02:02:09;;;;;;;15.60;6.50;;;;;;;0.29;100.00;100615.94;5050661;28;20053;-78
2022/01/02 02:04:36;;;;;;;14.50;6.38;;;;;;;0.33;100.00;100603.53;5050501;28;20561;-77
2022/01/02 02:07:04;;;;;;;15.63;7.22;;;;;;;0.11;100.00;100601.81;5051254;28;20056;-77
2022/01/02 02:09:46;;;;;;;18.23;7.00;;;;;;;0.17;100.00;100606.22;5054545;28;20487;-76
2022/01/02 02:12:15;;;;;;;18.17;7.03;;;;;;;0.15;100.00;100607.97;5051897;28;20457;-76
2022/01/02 02:14:43;;;;;;;17.85;7.75;;;;;;;0.04;100.00;100616.00;5053298;28;20127;-77
2022/01/02 02:17:11;;;;;;;15.50;7.32;;;;;;;-0.02;100.00;100608.91;5052385;28;20064;-75
2022/01/02 02:19:38;;;;;;;16.17;7.03;;;;;;;0.05;100.00;100599.16;5050936;28;20052;-76
2022/01/02 02:22:07;;;;;;;17.95;7.20;;;;;;;-0.03;100.00;100593.84;5050902;28;20056;-76
2022/01/02 02:24:35;;;;;;;17.63;7.22;;;;;;;0.00;100.00;100592.97;5099535;27;20051;-77
2022/01/02 02:27:03;;;;;;;18.20;7.53;;;;;;;-0.11;100.00;100585.00;5135390;27;20400;-76
2022/01/02 02:29:30;;;;;;;22.63;8.20;;;;;;;0.04;100.00;100573.47;5134044;27;20039;-77
2022/01/02 02:31:58;;;;;;;16.35;7.00;;;;;;;-0.07;100.00;100560.22;5114461;27;20040;-77
2022/01/02 02:34:25;;;;;;;21.02;7.97;;;;;;;0.11;100.00;100567.28;5113430;28;20057;-77
2022/01/02 02:36:53;;;;;;;16.63;7.22;;;;;;;0.19;100.00;100572.53;5113552;27;20039;-77
2022/01/02 02:39:22;;;;;;;16.00;6.97;;;;;;;0.19;100.00;100567.22;5115879;27;20146;-76
2022/01/02 02:41:50;;;;;;;16.42;6.88;;;;;;;0.23;100.00;100565.47;5133663;27;20043;-77
2022/01/02 02:44:32;;;;;;;16.08;6.72;;;;;;;0.13;100.00;100569.91;5125245;27;20039;-76
2022/01/02 02:49:44;;;;;;;15.30;6.85;;;;;;;0.09;100.00;100565.50;5116686;28;20043;-76
2022/01/02 02:52:21;;;;;;;17.55;8.25;;;;;;;0.10;100.00;100564.59;5130122;28;20050;-76
2022/01/02 02:54:51;;;;;;;16.25;7.00;;;;;;;0.23;100.00;100573.44;5128594;27;20043;-77
2022/01/02 02:57:19;;;;;;;16.42;6.75;;;;;;;0.00;100.00;100569.06;5122937;27;20039;-76
2022/01/02 02:59:47;;;;;;;15.95;6.50;;;;;;;0.04;100.00;100559.31;5119150;27;20128;-77
2022/01/02 03:02:14;;;;;;;17.70;6.60;;;;;;;0.06;100.00;100555.78;5113190;27;20052;-78
2022/01/02 03:04:42;;;;;;;17.42;7.45;;;;;;;0.01;100.00;100546.94;5113340;27;20409;-76
2022/01/02 03:07:09;;;;;;;19.05;8.25;;;;;;;0.03;100.00;100544.25;5125856;27;20047;-76
2022/01/02 03:09:42;;;;;;;18.13;7.90;;;;;;;0.03;100.00;100544.25;5117438;27;20088;-76
2022/01/02 03:12:12;;;;;;;17.65;7.60;;;;;;;0.12;100.00;100558.41;5135870;27;20047;-77
2022/01/02 03:14:40;;;;;;;17.38;6.53;;;;;;;0.10;100.00;100541.59;5133006;27;20051;-76
2022/01/02 03:17:07;;;;;;;13.07;5.22;;;;;;;0.08;100.00;100538.06;5117241;27;20066;-77
2022/01/02 03:19:35;;;;;;;11.70;4.95;;;;;;;0.08;100.00;100539.81;5113021;27;20047;-77
2022/01/02 03:22:05;;;;;;;10.77;4.82;;;;;;;0.06;100.00;100533.63;5112995;27;20043;-75
2022/01/02 03:24:32;;;;;;;9.82;4.13;;;;;;;0.07;100.00;100533.63;5126355;27;20096;-76
2022/01/02 03:27:00;;;;;;;9.65;4.18;;;;;;;0.11;100.00;100537.13;5132345;27;20100;-76
2022/01/02 03:29:29;;;;;;;8.43;3.70;;;;;;;0.04;100.00;100524.75;5123659;27;20100;-76
2022/01/02 03:31:56;;;;;;;9.93;3.90;;;;;;;0.01;100.00;100523.03;5122361;27;20405;-76
2022/01/02 03:34:24;;;;;;;7.10;3.20;;;;;;;0.09;100.00;100525.63;5112800;27;20068;-76
2022/01/02 03:36:51;;;;;;;10.15;3.60;;;;;;;0.06;100.00;100533.63;5118258;27;20039;-77
2022/01/02 03:39:19;;;;;;;7.47;3.20;;;;;;;0.23;100.00;100546.88;5117427;27;20047;-76
2022/01/02 03:41:46;;;;;;;7.65;3.60;;;;;;;0.13;100.00;100536.25;5113007;27;20043;-75
2022/01/02 03:44:17;;;;;;;9.70;3.92;;;;;;;0.12;100.00;100533.59;5127706;27;20067;-78
2022/01/02 03:46:46;;;;;;;8.32;3.85;;;;;;;0.13;100.00;100538.94;5126583;27;20414;-76
2022/01/02 03:49:13;;;;;;;10.57;3.70;;;;;;;0.06;100.00;100525.66;5112742;27;20047;-76
2022/01/02 03:51:41;;;;;;;7.40;3.38;;;;;;;0.06;100.00;100529.19;5132819;27;20043;-76
2022/01/02 03:54:08;;;;;;;7.85;3.30;;;;;;;0.03;100.00;100539.84;5133044;27;20043;-76
2022/01/02 03:56:35;;;;;;;5.63;2.75;;;;;;;0.04;100.00;100538.06;5121727;27;20456;-77
2022/01/02 03:59:03;;;;;;;7.68;3.22;;;;;;;0.13;100.00;100528.28;5112670;27;20379;-76
2022/01/02 04:01:31;;;;;;;7.25;3.08;;;;;;;0.05;100.00;100518.56;5114996;27;20050;-76
2022/01/02 04:03:59;;;;;;;7.57;3.22;;;;;;;0.05;100.00;100515.91;5119510;27;20379;-77
2022/01/02 04:06:27;;;;;;;8.30;3.90;;;;;;;0.08;100.00;100518.56;5122220;27;20493;-78
2022/01/02 04:08:54;;;;;;;6.25;3.30;;;;;;;0.08;100.00;100515.91;5124871;27;20054;-76
2022/01/02 04:11:22;;;;;;;6.95;3.05;;;;;;;0.11;100.00;100507.91;5135258;27;20408;-76
2022/01/02 04:13:50;;;;;;;6.65;2.95;;;;;;;0.13;100.00;100508.78;5136856;27;20439;-76
2022/01/02 04:16:17;;;;;;;6.82;3.10;;;;;;;0.14;100.00;100502.59;5136646;27;20413;-77
2022/01/02 04:18:44;;;;;;;9.05;4.32;;;;;;;0.13;100.00;100519.41;5139117;27;20050;-78
2022/01/02 04:21:14;;;;;;;10.35;4.65;;;;;;;0.16;100.00;100514.09;5128087;27;20489;-77
2022/01/02 04:23:41;;;;;;;9.85;5.15;;;;;;;0.13;100.00;100509.69;5128815;27;20417;-76
2022/01/02 04:26:08;;;;;;;9.50;4.47;;;;;;;0.25;100.00;100498.16;5136470;27;20050;-77
2022/01/02 04:28:36;;;;;;;9.13;3.83;;;;;;;0.15;100.00;100491.06;5137086;27;20061;-77
2022/01/02 04:31:04;;;;;;;6.93;3.08;;;;;;;0.17;100.00;100488.44;5136576;27;20043;-77
2022/01/02 04:33:31;;;;;;;7.10;3.17;;;;;;;0.21;100.00;100488.44;5124284;27;20047;-77
2022/01/02 04:35:59;;;;;;;7.25;3.47;;;;;;;0.25;100.00;100486.63;5123605;27;20051;-79
2022/01/02 04:38:28;;;;;;;5.97;3.08;;;;;;;0.19;100.00;100479.53;5121653;27;20040;-76
2022/01/02 04:40:55;;;;;;;6.07;3.10;;;;;;;0.25;100.00;100471.56;5116085;27;20508;-76
2022/01/02 04:43:23;;;;;;;8.35;3.10;;;;;;;0.32;100.00;100475.06;5115542;27;20043;-77
2022/01/02 04:45:50;;;;;;;6.63;3.05;;;;;;;0.27;100.00;100469.81;5124357;27;20055;-77
2022/01/02 04:48:18;;;;;;;9.35;3.78;;;;;;;0.25;100.00;100466.25;5127137;27;20039;-78
2022/01/02 04:50:46;;;;;;;5.82;3.05;;;;;;;0.29;100.00;100467.13;5138841;27;20047;-77
2022/01/02 04:53:13;;;;;;;8.30;3.40;;;;;;;0.31;100.00;100459.16;5119660;27;20050;-77
2022/01/02 04:55:42;;;;;;;8.40;3.60;;;;;;;0.33;100.00;100457.38;5119072;27;20035;-76
2022/01/02 04:58:10;;;;;;;11.07;3.97;;;;;;;0.41;100.00;100458.22;5135338;27;20111;-77
2022/01/02 05:00:37;;;;;;;12.10;4.63;;;;;;;0.41;100.00;100456.47;5122719;27;20051;-76
2022/01/02 05:03:05;;;;;;;11.27;5.40;;;;;;;0.44;100.00;100452.88;5117249;27;20507;-77
2022/01/02 05:05:32;;;;;;;14.15;5.50;;;;;;;0.30;100.00;100431.69;5115161;27;20039;-78
2022/01/02 05:08:00;;;;;;;14.32;5.68;;;;;;;0.31;100.00;100436.09;5114740;27;20039;-77
2022/01/02 05:10:27;;;;;;;14.43;5.65;;;;;;;0.25;100.00;100439.69;5115144;27;20048;-77
2022/01/02 05:12:56;;;;;;;14.70;5.60;;;;;;;0.24;100.00;100443.25;5130669;27;20076;-77
2022/01/02 05:15:24;;;;;;;12.75;5.55;;;;;;;0.30;100.00;100436.13;5117852;27;20088;-77
2022/01/02 05:17:51;;;;;;;14.77;5.20;;;;;;;0.27;100.00;100437.00;5114897;28;20421;-77
2022/01/02 05:20:19;;;;;;;11.52;5.00;;;;;;;0.34;100.00;100440.53;5117629;27;20051;-77
2022/01/02 05:22:47;;;;;;;12.52;4.60;;;;;;;0.34;100.00;100445.84;5122820;27;20046;-77
2022/01/02 05:25:14;;;;;;;11.40;4.93;;;;;;;0.31;100.00;100437.91;5115189;27;20055;-77
2022/01/02 05:27:42;;;;;;;12.02;4.78;;;;;;;0.35;100.00;100429.88;5124608;27;20100;-78
2022/01/02 05:30:12;;;;;;;10.68;4.47;;;;;;;0.37;100.00;100424.56;5131661;27;20039;-77
2022/01/02 05:32:39;;;;;;;9.30;4.50;;;;;;;0.43;100.00;100419.22;5114456;28;20039;-77
2022/01/02 05:35:07;;;;;;;10.32;4.30;;;;;;;0.47;100.00;100418.31;5114410;27;20052;-77
2022/01/02 05:37:35;;;;;;;9.77;5.43;;;;;;;0.43;100.00;100416.56;5124896;27;20050;-77
2022/01/02 05:40:02;;;;;;;16.90;8.30;;;;;;;0.40;100.00;100421.91;5122137;27;20066;-77
2022/01/02 05:42:30;;;;;;;13.00;6.30;;;;;;;0.42;100.00;100420.09;5114086;27;20047;-77
2022/01/02 05:44:58;;;;;;;10.50;4.35;;;;;;;0.41;100.00;100410.38;5116270;27;20047;-77
2022/01/02 05:47:27;;;;;;;8.38;3.90;;;;;;;0.49;100.00;100408.53;5114406;27;20123;-77
2022/01/02 05:49:54;;;;;;;9.30;3.83;;;;;;;0.45;100.00;100406.78;5113848;27;20498;-78
2022/01/02 05:52:22;;;;;;;8.60;4.07;;;;;;;0.43;100.00;100397.94;5124784;27;20043;-77
2022/01/02 05:54:49;;;;;;;10.18;3.88;;;;;;;0.36;100.00;100404.19;5132636;27;20506;-78
2022/01/02 05:57:17;;;;;;;8.93;4.05;;;;;;;0.38;100.00;100400.63;5134758;27;20043;-76
2022/01/02 05:59:44;;;;;;;9.32;4.15;;;;;;;0.43;100.00;100397.94;5130093;27;20047;-78
2022/01/02 06:02:12;;;;;;;8.25;3.97;;;;;;;0.44;100.00;100386.44;5132912;27;20043;-77
2022/01/02 06:04:41;;;;;;;11.63;4.63;;;;;;;0.30;100.00;100390.94;5129383;27;20148;-77
2022/01/02 06:07:09;;;;;;;12.02;4.50;;;;;;;0.44;100.00;100394.41;5113996;27;20494;-78
2022/01/02 06:09:36;;;;;;;13.18;4.35;;;;;;;0.45;100.00;100385.53;5114084;27;20071;-77
2022/01/02 06:12:05;;;;;;;12.10;4.57;;;;;;;0.42;100.00;100380.25;5129185;27;20043;-77
2022/01/02 06:14:32;;;;;;;12.48;4.22;;;;;;;0.41;100.00;100373.16;5133844;27;20397;-77
2022/01/02 06:16:59;;;;;;;10.63;4.72;;;;;;;0.48;100.00;100358.94;5134279;27;20055;-77
2022/01/02 06:19:27;;;;;;;10.40;4.05;;;;;;;0.45;100.00;100364.25;5113623;27;20047;-78
2022/01/02 06:21:56;;;;;;;9.82;3.97;;;;;;;0.41;100.00;100352.78;5121896;27;20401;-78
2022/01/02 06:24:23;;;;;;;10.30;4.00;;;;;;;0.35;100.00;100349.28;5133495;27;20035;-78
2022/01/02 06:26:51;;;;;;;9.75;3.92;;;;;;;0.37;100.00;100350.16;5127942;27;20047;-78
2022/01/02 06:29:19;;;;;;;8.48;3.67;;;;;;;0.55;100.00;100352.66;5123862;27;20039;-78
2022/01/02 06:31:46;;;;;;;7.20;3.20;;;;;;;0.57;100.00;100350.88;5124960;27;20049;-77
2022/01/02 06:34:14;;;;;;;6.13;2.80;;;;;;;0.51;99.88;100344.75;5113169;27;20113;-78
2022/01/02 06:36:41;;;;;;;6.85;2.78;;;;;;;0.48;100.00;100339.47;5127008;27;20404;-78
2022/01/02 06:39:10;;;;;;;5.38;2.78;;;;;;;0.58;100.00;100342.00;5134102;27;20497;-78
2022/01/02 06:41:38;;;;;;;4.88;2.60;;;;;;;0.58;100.00;100351.78;5133942;27;20039;-78
2022/01/02 06:44:05;;;;;;;7.05;2.92;;;;;;;0.59;100.00;100348.22;5131408;27;20489;-77
2022/01/02 06:46:33;;;;;;;6.45;2.97;;;;;;;0.74;100.00;100335.69;5113570;27;20039;-78
2022/01/02 06:49:00;;;;;;;5.75;2.90;;;;;;;0.62;100.00;100331.38;5113189;27;20646;-77
2022/01/02 06:51:28;;;;;;;8.30;3.10;;;;;;;0.71;100.00;100318.00;5113171;28;20398;-78
2022/01/02 06:53:55;;;;;;;5.85;2.80;;;;;;;0.61;99.90;100318.94;5121593;27;20043;-78
2022/01/02 06:56:24;;;;;;;5.85;3.00;;;;;;;0.76;100.00;100307.31;5122925;27;20042;-80
2022/01/02 06:58:52;;;;;;;5.57;2.90;;;;;;;0.63;99.88;100307.44;5121887;27;20043;-78
2022/01/02 07:01:19;;;;;;;6.60;2.92;;;;;;;0.76;99.68;100308.22;5120868;27;20134;-77
2022/01/02 07:03:47;;;;;;;6.85;2.80;;;;;;;0.98;99.85;100311.56;5121096;27;20043;-75
2022/01/02 07:06:15;;;;;;;6.07;2.90;;;;;;;1.02;99.53;100301.78;5123513;27;20043;-80
2022/01/02 07:08:42;;;;;;;5.70;2.75;;;;;;;1.03;98.16;100292.91;5120070;27;20529;-78
2022/01/02 07:11:11;;;;;;;7.10;3.50;;;;;;;1.03;100.00;100289.34;5122334;27;20053;-80
2022/01/02 07:13:40;;;;;;;7.78;3.47;;;;;;;0.98;100.00;100302.69;5122438;28;20078;-77
2022/01/02 07:16:08;;;;;;;8.07;3.60;;;;;;;0.80;99.87;100294.00;5121161;27;20039;-77
2022/01/02 07:18:36;;;;;;;8.15;3.58;;;;;;;0.87;100.00;100302.81;5122665;27;20080;-77
2022/01/02 07:21:03;;;;;;;9.00;3.70;;;;;;;0.84;100.00;100295.72;5120528;27;20043;-77
2022/01/02 07:23:31;;;;;;;8.40;3.85;;;;;;;0.99;100.00;100301.78;5129690;27;20035;-77
2022/01/02 07:25:58;;;;;;;8.18;3.80;;;;;;;0.75;100.00;100305.56;5124059;27;20378;-77
2022/01/02 07:28:26;;;;;;;7.68;3.47;;;;;;;0.84;100.00;100301.03;5123261;28;20502;-77
2022/01/02 07:30:56;;;;;;;7.25;3.50;;;;;;;0.90;100.00;100291.25;5125682;27;20039;-79
2022/01/02 07:33:24;;;;;;;9.85;3.95;;;;;;;0.77;100.00;100291.34;5126876;27;20058;-78
2022/01/02 07:35:52;;;;;;;9.70;4.22;;;;;;;0.71;100.00;100283.44;5119668;27;20063;-77
2022/01/02 07:38:20;;;;;;;10.50;3.92;;;;;;;0.78;100.00;100269.19;5113546;27;20053;-77
2022/01/02 07:40:49;;;;;;;8.65;3.80;;;;;;;0.88;100.00;100255.78;5113498;27;20039;-80
2022/01/02 07:43:17;;;;;;;9.18;4.07;;;;;;;0.90;100.00;100254.91;5113691;28;20044;-79
2022/01/02 07:45:45;;;;;;;9.18;3.88;;;;;;;0.87;100.00;100238.97;5113125;27;20047;-79
2022/01/02 07:48:15;;;;;;;9.07;3.97;;;;;;;0.90;100.00;100246.00;5122326;27;20801;-77
2022/01/02 07:50:42;;;;;;;8.40;3.90;;;;;;;0.93;100.00;100236.25;5133850;27;20413;-77
2022/01/02 07:53:10;;;;;;;9.90;4.35;;;;;;;0.84;100.00;100226.56;5133270;27;20050;-77
2022/01/02 07:55:37;;;;;;;8.88;4.20;;;;;;;0.93;100.00;100222.03;5127581;27;20039;-77
2022/01/02 07:58:05;;;;;;;8.07;4.25;;;;;;;0.94;100.00;100219.38;5113103;27;20047;-77
2022/01/02 08:00:32;;;;;;;9.25;4.00;;;;;;;1.19;100.00;100199.59;5129810;27;20051;-78
2022/01/02 08:03:00;;;;;;;11.50;4.57;;;;;;;1.17;100.00;100196.06;5125405;27;20047;-77
2022/01/02 08:05:29;;;;;;;9.55;4.53;;;;;;;1.14;100.00;100192.56;5129497;27;20047;-77
2022/01/02 08:07:58;;;;;;;8.57;4.63;;;;;;;1.02;100.00;100187.38;5119710;27;20043;-76
2022/01/02 08:10:27;;;;;;;11.52;4.72;;;;;;;1.10;100.00;100176.63;5112733;27;20051;-79
2022/01/02 08:12:54;;;;;;;11.07;4.60;;;;;;;0.91;100.00;100175.97;5112154;27;20047;-78
2022/01/02 08:15:22;;;;;;;12.30;4.68;;;;;;;1.05;100.00;100163.41;5112175;27;20046;-82
2022/01/02 08:17:50;;;;;;;11.45;4.85;;;;;;;1.06;100.00;100162.50;5112683;27;20040;-76
2022/01/02 08:20:17;;;;;;;11.27;4.68;;;;;;;1.06;100.00;100148.31;5112723;27;20055;-78
2022/01/02 08:22:46;;;;;;;10.25;4.80;;;;;;;1.10;100.00;100147.34;5112291;27;20058;-80
2022/01/02 08:25:13;;;;;;;9.50;4.40;;;;;;;1.06;100.00;100149.19;5112680;27;20548;-79
2022/01/02 08:27:41;;;;;;;11.82;4.88;;;;;;;0.92;100.00;100148.47;5128494;27;20039;-78
2022/01/02 08:30:09;;;;;;;12.35;4.90;;;;;;;1.15;100.00;100150.84;5131472;27;20047;-81
2022/01/02 08:32:38;;;;;;;10.98;4.72;;;;;;;1.29;100.00;100134.69;5132985;27;20104;-77
2022/01/02 08:35:07;;;;;;;12.80;5.32;;;;;;;1.33;100.00;100138.22;5132168;27;20055;-78
2022/01/02 08:37:34;;;;;;;12.90;5.25;;;;;;;1.30;100.00;100133.78;5130686;27;20043;-79
2022/01/02 08:40:04;;;;;;;11.88;5.30;;;;;;;1.23;100.00;100122.38;5112281;27;20043;-79
2022/01/02 08:42:31;;;;;;;16.50;5.72;;;;;;;1.39;100.00;100115.03;5112152;27;20478;-77
2022/01/02 08:44:59;;;;;;;12.45;5.68;;;;;;;1.47;100.00;100119.38;5113466;27;20058;-78
2022/01/02 08:47:27;;;;;;;10.95;5.03;;;;;;;1.52;100.00;100110.41;5118037;27;20070;-78
2022/01/02 08:49:54;;;;;;;13.15;5.53;;;;;;;1.49;100.00;100118.44;5132880;27;20043;-80
2022/01/02 08:52:22;;;;;;;13.02;5.60;;;;;;;1.57;100.00;100119.22;5118747;27;20051;-79
2022/01/02 08:54:50;;;;;;;13.35;5.78;;;;;;;1.59;100.00;100109.41;5127563;27;20047;-77
2022/01/02 08:57:19;;;;;;;14.00;5.90;;;;;;;1.64;100.00;100098.69;5130733;27;20421;-79
2022/01/02 08:59:46;;;;;;;14.75;5.80;;;;;;;1.59;100.00;100093.44;5111735;27;20498;-78
2022/01/02 09:02:14;;;;;;;13.15;5.75;;;;;;;1.61;100.00;100085.44;5120179;27;20043;-78
2022/01/02 09:04:41;;;;;;;11.65;5.70;;;;;;;1.71;100.00;100076.38;5132380;27;20138;-78
2022/01/02 09:07:09;;;;;;;18.52;6.68;;;;;;;1.62;100.00;100081.88;5132411;27;20047;-78
2022/01/02 09:09:37;;;;;;;15.68;6.10;;;;;;;1.37;100.00;100068.06;5132252;27;20067;-77
2022/01/02 09:12:05;;;;;;;14.75;6.00;;;;;;;1.47;100.00;100077.66;5131579;27;20051;-78
2022/01/02 09:14:35;;;;;;;14.77;6.60;;;;;;;1.65;100.00;100075.63;5127198;27;20047;-83
2022/01/02 09:17:02;;;;;;;16.98;6.90;;;;;;;1.73;100.00;100074.56;5118764;27;20048;-78
2022/01/02 09:19:30;;;;;;;14.65;6.95;;;;;;;1.68;100.00;100064.94;5111433;27;20044;-78
2022/01/02 09:21:57;;;;;;;18.48;6.00;;;;;;;1.80;100.00;100051.41;5111760;27;20043;-81
2022/01/02 09:24:25;;;;;;;16.10;7.28;;;;;;;1.61;100.00;100029.50;5111217;27;20069;-77
2022/01/02 09:26:53;;;;;;;14.82;7.05;;;;;;;1.73;100.00;100015.97;5111742;27;20047;-78
2022/01/02 09:29:21;;;;;;;14.75;6.43;;;;;;;1.61;100.00;100010.88;5121775;27;20053;-78
2022/01/02 09:31:50;;;;;;;14.45;6.80;;;;;;;1.66;100.00;100026.78;5131958;27;20496;-78
2022/01/02 09:34:18;;;;;;;17.13;7.30;;;;;;;1.67;100.00;100031.22;5131468;27;20055;-77
2022/01/02 09:36:46;;;;;;;15.10;6.60;;;;;;;1.75;100.00;100026.63;5131308;27;20051;-80
2022/01/02 09:39:13;;;;;;;16.20;7.93;;;;;;;1.77;100.00;100023.91;5131990;27;20047;-77
2022/01/02 09:41:41;;;;;;;15.73;7.47;;;;;;;1.87;100.00;100007.75;5131464;27;20051;-80
2022/01/02 09:44:08;;;;;;;18.02;7.43;;;;;;;1.77;100.00;99991.97;5111559;27;20054;-77
2022/01/02 09:46:41;;;;;;;15.70;7.68;;;;;;;1.80;100.00;99995.47;5111065;27;20047;-78
2022/01/02 09:49:10;;;;;;;17.35;8.13;;;;;;;1.86;100.00;100015.78;5112721;27;20096;-78
2022/01/02 09:51:38;;;;;;;15.90;7.78;;;;;;;1.85;100.00;100017.56;5110905;27;20085;-79
2022/01/02 09:54:05;;;;;;;16.73;8.07;;;;;;;1.94;100.00;100003.22;5111082;27;20074;-78
2022/01/02 09:56:33;;;;;;;19.90;8.50;;;;;;;1.99;100.00;100004.00;5110710;27;20051;-77
2022/01/02 09:59:02;;;;;;;17.52;8.13;;;;;;;1.98;100.00;100006.69;5110640;27;20047;-79
2022/01/02 10:01:30;;;;;;;17.30;8.15;;;;;;;1.97;100.00;100002.25;5125828;27;20131;-78
2022/01/02 10:03:58;;;;;;;19.73;8.85;;;;;;;2.09;100.00;99996.72;5131563;27;20043;-78
2022/01/02 10:06:40;;;;;;;17.88;8.13;;;;;;;2.05;100.00;99986.13;5111309;27;20046;-78
2022/01/02 10:09:12;;;;;;;20.88;8.98;;;;;;;2.11;100.00;99978.91;5110726;27;20056;-79
2022/01/02 10:11:40;;;;;;;19.58;9.35;;;;;;;2.10;100.00;99955.84;5123112;27;20050;-79
2022/01/02 10:14:10;;;;;;;17.33;8.48;;;;;;;2.06;100.00;99938.16;5124643;27;20043;-84
2022/01/02 10:16:39;;;;;;;18.88;8.23;;;;;;;2.13;100.00;99946.88;5127798;27;20051;-79
2022/01/02 10:19:26;;;;;;;19.83;8.30;;;;;;;2.09;100.00;99946.09;5131011;27;20042;-81
2022/01/02 10:21:57;;;;;;;18.92;8.27;;;;;;;2.28;100.00;99946.59;5133105;27;20047;-77
2022/01/02 10:24:27;;;;;;;21.05;9.48;;;;;;;2.24;100.00;99941.34;5127803;27;20091;-79
2022/01/02 10:27:06;;;;;;;47.42;20.02;;;;;;;2.31;100.00;99930.53;5129400;27;20484;-79
2022/01/02 10:29:51;;;;;;;33.63;15.75;;;;;;;2.24;100.00;99923.56;5123140;27;20043;-80
2022/01/02 10:32:30;;;;;;;33.78;17.13;;;;;;;2.31;100.00;99924.31;5129772;27;20047;-80
2022/01/02 10:35:24;;;;;;;21.83;10.30;;;;;;;2.29;100.00;99904.81;5129724;27;20105;-78
2022/01/02 10:37:55;;;;;;;20.17;9.43;;;;;;;2.40;100.00;99900.09;5089833;28;20138;-77
2022/01/02 10:40:30;;;;;;;20.38;9.43;;;;;;;2.47;100.00;99895.53;5089407;28;20048;-82
2022/01/02 10:42:59;;;;;;;19.40;8.95;;;;;;;2.41;100.00;99880.53;5091145;28;20048;-80
2022/01/02 10:45:38;;;;;;;21.80;9.57;;;;;;;2.49;100.00;99860.84;5091159;28;20044;-77
2022/01/02 10:48:07;;;;;;;21.30;9.20;;;;;;;2.57;100.00;99862.41;5091958;28;20060;-77
2022/01/02 10:50:35;;;;;;;20.95;9.23;;;;;;;2.42;100.00;99855.63;5091062;28;20081;-78
2022/01/02 10:53:14;;;;;;;19.67;8.95;;;;;;;2.53;100.00;99849.19;5090952;28;20044;-77
2022/01/02 10:55:44;;;;;;;18.25;8.80;;;;;;;2.49;100.00;99853.72;5092640;28;20055;-77
2022/01/02 10:58:12;;;;;;;22.92;10.05;;;;;;;2.57;100.00;99854.41;5090798;28;20126;-77
2022/01/02 11:00:40;;;;;;;21.23;9.98;;;;;;;2.62;100.00;99840.97;5090645;28;20520;-78
2022/01/02 11:03:08;;;;;;;21.40;9.95;;;;;;;2.49;100.00;99840.38;5090839;28;20048;-81
2022/01/02 11:05:37;;;;;;;19.58;9.40;;;;;;;2.55;100.00;99840.22;5091022;28;20158;-78
2022/01/02 11:08:05;;;;;;;22.85;11.40;;;;;;;2.58;100.00;99832.16;5090772;28;20453;-77
2022/01/02 11:10:35;;;;;;;22.63;11.60;;;;;;;2.59;100.00;99820.56;5093400;28;20494;-79
2022/01/02 11:13:04;;;;;;;26.38;12.05;;;;;;;2.67;100.00;99801.72;5105776;27;20077;-85
2022/01/02 11:15:32;;;;;;;19.95;9.68;;;;;;;2.86;100.00;99796.81;5138060;27;20071;-79
2022/01/02 11:18:00;;;;;;;26.92;11.20;;;;;;;2.75;100.00;99794.41;5137982;27;20039;-77
2022/01/02 11:20:29;;;;;;;22.88;10.70;;;;;;;2.79;100.00;99789.88;5138049;27;20087;-76
2022/01/02 11:23:06;;;;;;;22.90;10.48;;;;;;;2.80;100.00;99769.41;5137970;27;20054;-77
2022/01/02 11:25:41;;;;;;;22.88;10.98;;;;;;;2.91;100.00;99770.03;5138164;27;20107;-77
2022/01/02 11:28:17;;;;;;;26.75;10.98;;;;;;;2.81;100.00;99752.47;5138130;27;20066;-79
2022/01/02 11:30:45;;;;;;;27.50;11.68;;;;;;;2.85;100.00;99754.16;5138459;27;20046;-82
2022/01/02 11:33:14;;;;;;;25.88;11.68;;;;;;;2.89;100.00;99740.72;5137807;27;20050;-78
2022/01/02 11:35:43;;;;;;;48.38;21.00;;;;;;;2.99;100.00;99721.78;5137494;27;20058;-78